Time;durP1;ratioP1;P1;durP2;ratioP2;P2;SDS_P1;SDS_P2;PMS_P1;PMS_P2;Temp;Humidity;BMP_temperature;BMP_pressure;BME280_temperature;BME280_humidity;BME280_pressure;Samples;Min_cycle;Max_cycle;Signal;HPM_P1;HPM_P2
2022/08/28 00:01:52;;;;;;;;;4.25;3.50;;;;;21.06;43.81;101429.19;5096286;27;46142;-81
2022/08/28 00:04:18;;;;;;;;;4.00;4.00;;;;;21.05;43.71;101426.66;5096421;27;45407;-81
2022/08/28 00:06:43;;;;;;;;;4.00;4.00;;;;;21.04;43.75;101430.22;5095521;27;64259;-80
2022/08/28 00:09:08;;;;;;;;;5.25;4.00;;;;;20.99;44.17;101433.16;5096390;27;45434;-81
2022/08/28 00:11:36;;;;;;;;;4.50;4.00;;;;;20.95;44.18;101429.00;5095130;27;75894;-80
2022/08/28 00:14:06;;;;;;;;;3.25;3.00;;;;;20.91;44.26;101430.13;5077799;27;45848;-80
2022/08/28 00:16:32;;;;;;;;;6.25;4.00;;;;;20.87;45.68;101426.81;5096320;27;45356;-80
2022/08/28 00:18:58;;;;;;;;;5.00;4.00;;;;;20.86;45.29;101421.66;5096247;27;45521;-80
2022/08/28 00:21:23;;;;;;;;;5.75;5.75;;;;;20.85;44.36;101426.06;5095955;27;45722;-80
2022/08/28 00:23:49;;;;;;;;;5.50;5.00;;;;;20.82;45.32;101423.63;5095885;27;45303;-80
2022/08/28 00:27:51;;;;;;;;;5.00;5.00;;;;;20.80;45.50;101414.94;5096208;27;45339;-80
2022/08/28 00:28:59;;;;;;;;;5.50;5.00;;;;;20.78;46.35;101419.47;5095704;27;45544;-81
2022/08/28 00:31:25;;;;;;;;;4.50;4.50;;;;;20.78;45.33;101421.25;5095290;27;61924;-80
2022/08/28 00:33:50;;;;;;;;;7.50;6.00;;;;;20.75;46.10;101424.94;5094915;27;73463;-80
2022/08/28 00:36:16;;;;;;;;;5.25;5.00;;;;;20.73;45.93;101425.97;5094982;27;69239;-80
2022/08/28 00:38:41;;;;;;;;;6.75;6.00;;;;;20.70;45.74;101427.00;5096102;27;45299;-80
2022/08/28 00:41:06;;;;;;;;;7.25;6.00;;;;;20.67;45.59;101430.69;5096143;27;68781;-80
2022/08/28 00:43:42;;;;;;;;;5.00;5.00;;;;;20.66;45.60;101434.28;5098511;27;63050;-80
2022/08/28 00:46:14;;;;;;;;;4.00;4.00;;;;;20.64;45.44;101430.03;5081051;27;45338;-80
2022/08/28 00:48:41;;;;;;;;;5.00;4.25;;;;;20.64;45.44;101432.69;5081251;27;45370;-80
2022/08/28 00:53:53;;;;;;;;;6.50;4.75;;;;;20.60;46.07;101432.00;5099335;27;45298;-80
2022/08/28 00:56:19;;;;;;;;;4.00;4.00;;;;;20.58;46.93;101435.63;5081093;27;45353;-80
2022/08/28 00:58:46;;;;;;;;;4.75;4.00;;;;;20.56;45.86;101435.75;5098335;27;55722;-80
2022/08/28 01:01:13;;;;;;;;;6.00;5.00;;;;;20.55;46.14;101433.19;5080917;27;46569;-80
2022/08/28 01:03:39;;;;;;;;;6.75;4.00;;;;;20.53;46.52;101427.16;5080819;27;45684;-80
2022/08/28 01:06:05;;;;;;;;;5.50;3.00;;;;;20.51;46.41;101429.88;5099208;27;45374;-80
2022/08/28 01:08:33;;;;;;;;;6.00;3.00;;;;;20.49;46.52;101435.25;5080914;27;45457;-80
2022/08/28 01:11:00;;;;;;;;;4.50;3.25;;;;;20.48;47.18;101433.53;5080520;27;45336;-80
2022/08/28 01:13:26;;;;;;;;;5.00;3.00;;;;;20.48;46.98;101441.47;5080369;27;45389;-80
2022/08/28 01:15:53;;;;;;;;;3.75;3.50;;;;;20.46;46.67;101435.44;5080812;27;45363;-80
2022/08/28 01:18:19;;;;;;;;;5.25;3.50;;;;;20.46;47.41;101445.16;5098213;27;66402;-80
2022/08/28 01:20:53;;;;;;;;;5.00;5.00;;;;;20.44;47.15;101445.25;5080577;27;45973;-80
2022/08/28 01:23:23;;;;;;;;;7.75;3.75;;;;;20.43;47.16;101442.69;5080392;27;45782;-80
2022/08/28 01:25:48;;;;;;;;;4.25;3.25;;;;;20.41;47.15;101442.81;5080733;27;45457;-80
2022/08/28 01:28:14;;;;;;;;;4.00;4.00;;;;;20.41;46.89;101440.16;5079842;27;56096;-80
2022/08/28 01:30:42;;;;;;;;;3.25;3.25;;;;;20.39;47.34;101447.34;5080175;27;54231;-81
2022/08/28 01:33:07;;;;;;;;;3.75;3.75;;;;;20.37;47.06;101440.41;5098199;27;45306;-80
2022/08/28 01:35:36;;;;;;;;;4.00;4.00;;;;;20.34;47.71;101436.19;5098297;27;50698;-80
2022/08/28 01:38:03;;;;;;;;;6.50;4.50;;;;;20.36;48.17;101433.44;5080412;27;45286;-80
2022/08/28 01:40:34;;;;;;;;;4.00;3.25;;;;;20.33;48.30;101429.16;5098099;27;45636;-79
2022/08/28 01:43:26;;;;;;;;;5.75;5.25;;;;;20.29;48.21;101428.50;5098391;27;45321;-80
2022/08/28 01:46:00;;;;;;;;;5.00;5.00;;;;;20.26;47.75;101427.84;5095384;27;45583;-80
2022/08/28 01:48:27;;;;;;;;;7.75;4.00;;;;;20.25;48.15;101421.69;5098585;27;45416;-80
2022/08/28 01:50:52;;;;;;;;;6.00;4.00;;;;;20.23;48.48;101418.31;5098429;27;46772;-80
2022/08/28 01:53:22;;;;;;;;;4.00;3.00;;;;;20.20;48.36;101417.63;5097753;27;45371;-80
2022/08/28 01:55:47;;;;;;;;;4.75;3.75;;;;;20.16;48.94;101416.09;5079728;27;45438;-80
2022/08/28 01:58:13;;;;;;;;;3.75;3.75;;;;;20.12;48.96;101412.78;5080101;27;45568;-80
2022/08/28 02:00:38;;;;;;;;;4.75;4.25;;;;;20.08;49.20;101412.13;5079606;27;53191;-81
2022/08/28 02:03:05;;;;;;;;;3.75;3.25;;;;;20.05;49.01;101406.16;5097148;27;72580;-80
2022/08/28 02:05:32;;;;;;;;;4.50;4.50;;;;;20.03;49.48;101416.81;5098215;27;45320;-80
2022/08/28 02:07:58;;;;;;;;;5.00;4.00;;;;;19.99;49.34;101415.28;5098094;27;45286;-80
2022/08/28 02:10:25;;;;;;;;;5.75;4.25;;;;;19.98;49.29;101418.03;5079525;27;46737;-80
2022/08/28 02:12:52;;;;;;;;;4.75;4.75;;;;;19.95;48.89;101415.53;5098077;27;45462;-80
2022/08/28 02:15:17;;;;;;;;;4.75;4.00;;;;;19.94;48.85;101419.97;5098180;27;45271;-80
2022/08/28 02:17:43;;;;;;;;;3.50;3.50;;;;;19.95;48.86;101416.41;5098199;27;45364;-80
2022/08/28 02:20:08;;;;;;;;;3.25;3.25;;;;;19.96;49.26;101414.63;5096952;27;74370;-80
2022/08/28 02:22:34;;;;;;;;;7.00;4.25;;;;;19.94;49.40;101417.34;5097745;27;45418;-80
2022/08/28 02:24:59;;;;;;;;;4.00;4.00;;;;;19.92;49.07;101420.06;5096686;27;66301;-80
2022/08/28 02:27:25;;;;;;;;;5.50;4.00;;;;;19.90;49.09;101421.09;5097967;27;45435;-80
2022/08/28 02:29:50;;;;;;;;;4.00;3.00;;;;;19.88;49.02;101412.41;5097131;27;62646;-80
2022/08/28 02:32:17;;;;;;;;;5.00;3.50;;;;;19.89;49.14;101422.03;5097511;27;45491;-80
2022/08/28 02:34:42;;;;;;;;;2.00;2.00;;;;;19.88;48.96;101421.19;5097662;27;45493;-80
2022/08/28 02:37:10;;;;;;;;;5.50;4.00;;;;;19.84;49.49;101434.69;5079510;27;45463;-80
2022/08/28 02:39:36;;;;;;;;;2.75;2.00;;;;;19.82;49.79;101431.28;5079256;27;45449;-80
2022/08/28 02:42:01;;;;;;;;;3.00;3.00;;;;;19.80;50.01;101427.84;5097587;27;45378;-80
2022/08/28 02:44:26;;;;;;;;;5.00;4.00;;;;;19.77;49.95;101434.16;5097714;27;45292;-80
2022/08/28 02:46:52;;;;;;;;;7.50;5.00;;;;;19.77;49.79;101428.88;5096759;27;63476;-80
2022/08/28 02:49:17;;;;;;;;;3.00;2.00;;;;;19.77;49.68;101425.41;5097394;27;46248;-80
2022/08/28 02:51:43;;;;;;;;;3.50;3.50;;;;;19.77;49.18;101430.69;5096450;27;72563;-80
2022/08/28 02:54:08;;;;;;;;;3.75;3.75;;;;;19.76;49.78;101423.69;5095882;27;68974;-80
2022/08/28 02:56:33;;;;;;;;;10.50;7.50;;;;;19.73;49.57;101430.84;5097520;27;45269;-80
2022/08/28 02:58:59;;;;;;;;;13.50;12.50;;;;;19.71;50.23;101418.63;5096074;27;74658;-80
2022/08/28 03:01:24;;;;;;;;;17.75;15.00;;;;;19.71;50.63;101419.47;5096450;27;63042;-80
2022/08/28 03:03:49;;;;;;;;;19.75;15.75;;;;;19.69;50.04;101415.22;5077419;27;65546;-80
2022/08/28 03:06:15;;;;;;;;;19.25;17.25;;;;;19.68;50.35;101413.53;5096617;27;45278;-80
2022/08/28 03:08:41;;;;;;;;;21.75;18.75;;;;;19.66;49.79;101416.25;5078535;27;45419;-80
2022/08/28 03:11:07;;;;;;;;;28.25;21.25;;;;;19.65;50.10;101411.03;5096989;27;45927;-80
2022/08/28 03:13:32;;;;;;;;;18.50;17.00;;;;;19.63;50.96;101412.91;5096141;27;69094;-80
2022/08/28 03:15:58;;;;;;;;;24.00;13.75;;;;;19.61;50.24;101414.78;5097395;27;45412;-80
2022/08/28 03:18:26;;;;;;;;;11.50;10.75;;;;;19.59;50.36;101412.25;5096896;27;46142;-80
2022/08/28 03:20:52;;;;;;;;;12.25;9.25;;;;;19.57;50.85;101411.47;5078903;27;45512;-81
2022/08/28 03:23:26;;;;;;;;;9.50;8.00;;;;;19.56;50.00;101408.91;5078400;27;45425;-80
2022/08/28 03:25:56;;;;;;;;;8.00;8.00;;;;;19.53;50.36;101413.44;5096887;27;45226;-80
2022/08/28 03:28:22;;;;;;;;;7.00;5.75;;;;;19.53;51.13;101413.44;5078459;27;45621;-80
2022/08/28 03:30:48;;;;;;;;;6.75;6.75;;;;;19.51;50.88;101409.19;5096854;27;45325;-80
2022/08/28 03:33:13;;;;;;;;;5.00;4.75;;;;;19.50;50.30;101413.63;5096721;27;45369;-80
2022/08/28 03:35:39;;;;;;;;;5.00;5.00;;;;;19.47;50.15;101411.16;5078274;27;45397;-80
2022/08/28 03:38:04;;;;;;;;;7.00;5.25;;;;;19.42;50.55;101409.69;5096253;27;45384;-80
2022/08/28 03:40:31;;;;;;;;;5.00;5.00;;;;;19.39;51.65;101413.38;5096654;27;45294;-80
2022/08/28 03:42:56;;;;;;;;;5.75;5.00;;;;;19.37;51.79;101419.66;5096782;27;45408;-80
2022/08/28 03:45:22;;;;;;;;;5.50;4.50;;;;;19.34;52.31;101416.25;5096729;27;45362;-80
2022/08/28 03:47:47;;;;;;;;;3.25;3.25;;;;;19.31;51.80;101413.78;5096286;27;53717;-80
2022/08/28 03:50:13;;;;;;;;;4.25;4.00;;;;;19.30;52.28;101416.53;5077456;27;70574;-80
2022/08/28 03:52:39;;;;;;;;;6.00;5.00;;;;;19.27;51.59;101421.94;5096249;27;45367;-80
2022/08/28 03:55:08;;;;;;;;;4.00;4.00;;;;;19.24;51.51;101422.97;5078076;27;45498;-80
2022/08/28 03:57:34;;;;;;;;;5.00;4.75;;;;;19.23;51.95;101417.78;5096329;27;46636;-80
2022/08/28 04:00:00;;;;;;;;;5.00;5.00;;;;;19.22;51.45;101416.91;5096493;27;45375;-80
2022/08/28 04:02:26;;;;;;;;;7.75;5.00;;;;;19.21;51.43;101411.75;5078311;27;45484;-80
2022/08/28 04:04:51;;;;;;;;;6.00;5.00;;;;;19.19;51.55;101421.53;5078169;27;45416;-80
2022/08/28 04:07:18;;;;;;;;;3.75;3.00;;;;;19.16;52.35;101419.88;5095793;27;46408;-80
2022/08/28 04:09:43;;;;;;;;;6.00;5.00;;;;;19.14;52.09;101421.75;5096248;27;45335;-80
2022/08/28 04:12:09;;;;;;;;;5.00;4.25;;;;;19.11;51.92;101422.78;5095757;27;60558;-80
2022/08/28 04:14:35;;;;;;;;;4.75;4.75;;;;;19.11;51.95;101422.78;5077984;27;45331;-80
2022/08/28 04:17:00;;;;;;;;;4.75;4.00;;;;;19.09;52.58;101422.03;5098559;27;45290;-80
2022/08/28 04:19:25;;;;;;;;;6.75;5.00;;;;;19.08;52.17;101416.81;5098808;27;73295;-80
2022/08/28 04:21:51;;;;;;;;;5.00;5.00;;;;;19.07;52.22;101417.75;5099411;27;45578;-80
2022/08/28 04:24:16;;;;;;;;;9.00;8.75;;;;;19.05;52.10;101415.19;5099102;27;58539;-80
2022/08/28 04:26:42;;;;;;;;;13.25;12.00;;;;;19.04;51.90;101423.22;5098583;27;75729;-80
2022/08/28 04:29:07;;;;;;;;;15.25;11.00;;;;;18.99;52.18;101422.59;5098820;27;66365;-80
2022/08/28 04:31:33;;;;;;;;;17.75;11.00;;;;;18.97;52.04;101420.03;5099702;27;45503;-80
2022/08/28 04:34:00;;;;;;;;;7.00;6.75;;;;;18.94;52.82;101417.56;5099598;27;45406;-80
2022/08/28 04:36:26;;;;;;;;;7.00;6.00;;;;;18.91;52.05;101417.72;5080624;27;45608;-80
2022/08/28 04:38:51;;;;;;;;;5.25;5.25;;;;;18.89;52.70;101422.25;5099133;27;58727;-80
2022/08/28 04:41:16;;;;;;;;;7.00;6.00;;;;;18.87;52.27;101429.34;5080313;27;67160;-80
2022/08/28 04:43:42;;;;;;;;;5.25;5.25;;;;;18.80;52.52;101426.19;5080460;27;59674;-80
2022/08/28 04:46:10;;;;;;;;;7.00;6.00;;;;;18.72;53.46;101429.22;5099475;27;46832;-80
2022/08/28 04:48:36;;;;;;;;;5.50;4.00;;;;;18.72;52.58;101434.50;5081263;27;45436;-80
2022/08/28 04:51:04;;;;;;;;;5.00;4.25;;;;;18.68;53.19;101432.06;5099170;27;45416;-80
2022/08/28 04:53:29;;;;;;;;;4.00;4.00;;;;;18.65;53.25;101441.00;5099515;27;45330;-80
2022/08/28 04:55:57;;;;;;;;;6.00;5.75;;;;;18.62;53.28;101442.94;5098883;27;45751;-80
2022/08/28 04:58:23;;;;;;;;;6.25;4.25;;;;;18.56;53.86;101447.59;5099186;27;45163;-80
2022/08/28 05:00:50;;;;;;;;;5.00;5.00;;;;;18.53;53.52;101446.91;5081144;27;45490;-80
2022/08/28 05:03:16;;;;;;;;;5.75;4.75;;;;;18.50;53.91;101442.66;5099400;27;45219;-80
2022/08/28 05:05:47;;;;;;;;;5.00;5.00;;;;;18.47;53.78;101449.88;5098492;27;46513;-80
2022/08/28 05:08:13;;;;;;;;;3.00;3.00;;;;;18.44;54.60;101448.22;5080702;27;45363;-80
2022/08/28 05:10:39;;;;;;;;;6.00;5.50;;;;;18.45;54.39;101455.22;5080724;27;45331;-80
2022/08/28 05:13:07;;;;;;;;;6.50;4.00;;;;;18.42;54.52;101454.50;5099163;27;45376;-80
2022/08/28 05:15:32;;;;;;;;;9.25;4.50;;;;;18.42;54.44;101451.88;5080821;27;46168;-80
2022/08/28 05:17:58;;;;;;;;;6.25;4.00;;;;;18.41;54.35;101458.94;5080407;27;45404;-80
2022/08/28 05:20:24;;;;;;;;;4.00;4.00;;;;;18.41;54.35;101456.31;5079904;27;68093;-80
2022/08/28 05:22:49;;;;;;;;;6.50;5.00;;;;;18.39;55.26;101455.53;5098948;27;45404;-80
2022/08/28 05:25:14;;;;;;;;;4.25;4.00;;;;;18.41;54.92;101460.72;5098151;27;62035;-80
2022/08/28 05:27:40;;;;;;;;;6.00;5.00;;;;;18.44;55.18;101465.81;5096688;27;73327;-80
2022/08/28 05:30:06;;;;;;;;;5.00;5.00;;;;;18.47;54.49;101463.03;5098810;27;45409;-79
2022/08/28 05:32:31;;;;;;;;;7.50;5.00;;;;;18.47;54.50;101458.63;5069038;27;45196;-80
2022/08/28 05:34:57;;;;;;;;;6.50;6.00;;;;;18.47;54.96;101469.16;5097333;27;74538;-79
2022/08/28 05:37:22;;;;;;;;;9.00;6.75;;;;;18.48;54.81;101475.28;5098705;27;45437;-80
2022/08/28 05:39:47;;;;;;;;;6.00;5.00;;;;;18.48;55.35;101476.16;5098604;27;45213;-80
2022/08/28 05:42:13;;;;;;;;;4.00;4.00;;;;;18.50;55.31;101479.56;5097838;27;69141;-80
2022/08/28 05:44:38;;;;;;;;;5.75;4.75;;;;;18.53;55.71;101474.13;5079596;27;53763;-80
2022/08/28 05:47:03;;;;;;;;;4.50;4.50;;;;;18.58;55.01;101479.16;5097039;27;73180;-80
2022/08/28 05:49:29;;;;;;;;;5.00;5.00;;;;;18.58;55.29;101476.53;5098610;27;45372;-80
2022/08/28 05:51:54;;;;;;;;;5.00;4.00;;;;;18.58;55.03;101479.16;5097753;27;62023;-80
2022/08/28 05:54:19;;;;;;;;;4.25;4.25;;;;;18.60;55.08;101481.72;5096952;27;73528;-80
2022/08/28 05:56:45;;;;;;;;;7.00;5.00;;;;;18.61;55.57;101480.78;5097466;27;67529;-80
2022/08/28 05:59:12;;;;;;;;;4.50;4.50;;;;;18.63;55.01;101482.44;5098340;27;45272;-80
2022/08/28 06:01:43;;;;;;;;;4.50;4.50;;;;;18.65;55.07;101475.28;5098093;27;45373;-80
2022/08/28 06:04:16;;;;;;;;;6.00;5.00;;;;;18.67;55.45;101470.78;5079759;27;45986;-80
2022/08/28 06:06:42;;;;;;;;;6.75;4.50;;;;;18.70;55.05;101478.56;5080191;27;45271;-80
2022/08/28 06:09:22;;;;;;;;;3.75;3.75;;;;;18.74;54.81;101479.25;5098355;27;45262;-80
2022/08/28 06:11:48;;;;;;;;;6.00;4.25;;;;;18.73;54.95;101475.75;5079944;27;45480;-80
2022/08/28 06:14:15;;;;;;;;;5.00;4.25;;;;;18.72;55.61;101478.44;5097762;27;46197;-80
2022/08/28 06:16:42;;;;;;;;;5.00;4.50;;;;;18.70;55.87;101486.47;5079419;27;45703;-80
2022/08/28 06:19:09;;;;;;;;;6.25;5.00;;;;;18.74;55.08;101476.63;5079728;27;45243;-80
2022/08/28 06:21:36;;;;;;;;;5.50;5.00;;;;;18.77;55.40;101477.28;5098272;27;45196;-80
2022/08/28 06:24:02;;;;;;;;;5.50;4.00;;;;;18.83;55.34;101480.56;5079457;27;46348;-81
2022/08/28 06:26:28;;;;;;;;;4.50;4.00;;;;;18.85;55.04;101478.69;5097754;27;45372;-80
2022/08/28 06:28:53;;;;;;;;;5.75;4.00;;;;;18.86;55.13;101490.97;5098110;27;45675;-80
2022/08/28 06:31:19;;;;;;;;;5.75;5.75;;;;;18.89;54.82;101489.03;5097464;27;45453;-80
2022/08/28 06:33:45;;;;;;;;;7.25;6.00;;;;;18.90;55.50;101488.09;5078337;27;67522;-80
2022/08/28 06:36:11;;;;;;;;;5.50;4.00;;;;;18.94;56.08;101486.13;5097555;27;45718;-80
2022/08/28 06:38:36;;;;;;;;;4.25;4.25;;;;;18.99;56.25;101483.28;5097587;27;45281;-80
2022/08/28 06:41:09;;;;;;;;;6.00;6.00;;;;;19.06;55.69;101492.56;5097715;27;45409;-80
2022/08/28 06:43:35;;;;;;;;;4.00;4.00;;;;;19.11;54.88;101493.16;5097361;27;45411;-80
2022/08/28 06:46:00;;;;;;;;;5.00;5.00;;;;;19.15;55.21;101490.28;5096246;27;67197;-81
2022/08/28 06:48:27;;;;;;;;;4.00;4.00;;;;;19.19;55.06;101495.44;5096833;27;65627;-80
2022/08/28 06:50:53;;;;;;;;;7.00;4.00;;;;;19.21;54.98;101491.75;5079237;27;45348;-80
2022/08/28 06:53:21;;;;;;;;;4.75;4.75;;;;;19.24;54.58;101488.97;5097103;27;46273;-80
2022/08/28 06:55:57;;;;;;;;;7.00;5.50;;;;;19.22;54.88;101495.25;5097114;27;45712;-80
2022/08/28 06:58:23;;;;;;;;;4.25;3.00;;;;;19.24;55.05;101498.66;5097520;27;45474;-80
2022/08/28 07:00:49;;;;;;;;;5.00;5.00;;;;;19.26;54.99;101500.28;5097003;27;45630;-80
2022/08/28 07:03:15;;;;;;;;;6.75;4.00;;;;;19.31;55.25;101500.03;5078934;27;46390;-80
2022/08/28 07:05:40;;;;;;;;;7.00;4.75;;;;;19.36;54.77;101498.00;5097320;27;45811;-80
2022/08/28 07:08:06;;;;;;;;;7.00;5.00;;;;;19.39;55.12;101500.50;5097304;27;45445;-80
2022/08/28 07:10:31;;;;;;;;;4.25;4.25;;;;;19.44;55.37;101494.94;5096407;27;65494;-80
2022/08/28 07:12:59;;;;;;;;;10.00;5.00;;;;;19.49;54.82;101495.56;5096324;27;59775;-80
2022/08/28 07:15:24;;;;;;;;;5.75;5.75;;;;;19.53;54.79;101497.09;5096667;27;45323;-80
2022/08/28 07:17:50;;;;;;;;;8.00;5.00;;;;;19.54;54.68;101494.38;5097167;27;45346;-80
2022/08/28 07:20:15;;;;;;;;;4.25;4.25;;;;;19.59;54.34;101503.81;5097057;27;45215;-80
2022/08/28 07:22:41;;;;;;;;;6.75;5.75;;;;;19.61;54.59;101509.88;5096803;27;46280;-80
2022/08/28 07:25:07;;;;;;;;;6.00;4.00;;;;;19.62;55.12;101508.94;5096562;27;45455;-80
2022/08/28 07:27:33;;;;;;;;;6.00;4.25;;;;;19.64;54.97;101502.63;5097017;27;45367;-80
2022/08/28 07:29:58;;;;;;;;;3.50;3.50;;;;;19.68;54.35;101509.44;5095581;27;69614;-80
2022/08/28 07:32:24;;;;;;;;;5.50;5.00;;;;;19.74;54.28;101513.56;5078080;27;46318;-80
2022/08/28 07:34:49;;;;;;;;;4.75;4.75;;;;;19.77;54.74;101516.03;5095642;27;67424;-80
2022/08/28 07:37:17;;;;;;;;;7.00;5.00;;;;;19.82;54.79;101513.16;5095939;27;65432;-80
2022/08/28 07:39:43;;;;;;;;;5.50;5.00;;;;;19.87;54.06;101511.09;5078405;27;45369;-80
2022/08/28 07:42:09;;;;;;;;;5.00;5.00;;;;;19.91;54.40;101505.56;5078316;27;45369;-80
2022/08/28 07:44:50;;;;;;;;;6.00;4.75;;;;;19.98;54.49;101510.50;5077887;27;45445;-80
2022/08/28 07:47:16;;;;;;;;;5.00;5.00;;;;;20.04;53.58;101523.34;5080671;27;45381;-80
2022/08/28 07:49:42;;;;;;;;;7.50;5.75;;;;;20.06;53.83;101514.41;5061267;27;45461;-80
2022/08/28 07:52:09;;;;;;;;;4.25;4.25;;;;;20.09;53.76;101508.94;5077405;27;46486;-80
2022/08/28 07:54:35;;;;;;;;;7.25;4.25;;;;;20.14;53.78;101515.78;5078067;27;45744;-80
2022/08/28 07:57:04;;;;;;;;;5.00;4.25;;;;;20.16;53.62;101521.84;5096657;27;45364;-81
2022/08/28 07:59:30;;;;;;;;;4.50;4.50;;;;;20.20;53.87;101515.44;5096140;27;45320;-80
2022/08/28 08:01:55;;;;;;;;;7.25;5.00;;;;;20.23;53.18;101523.19;5096232;27;47030;-81
2022/08/28 08:04:22;;;;;;;;;7.00;5.00;;;;;20.25;54.07;101522.16;5095836;27;52734;-80
2022/08/28 08:06:48;;;;;;;;;8.50;5.25;;;;;20.29;53.27;101522.81;5096464;27;45343;-80
2022/08/28 08:09:15;;;;;;;;;7.50;7.00;;;;;20.35;53.31;101526.91;5078077;27;45308;-80
2022/08/28 08:11:41;;;;;;;;;6.00;5.00;;;;;20.39;53.14;101515.22;5096291;27;46429;-80
2022/08/28 08:14:07;;;;;;;;;5.00;5.00;;;;;20.41;53.70;101518.63;5095621;27;45770;-81
2022/08/28 08:16:35;;;;;;;;;6.00;6.00;;;;;20.46;53.50;101521.84;5096317;27;45380;-80
2022/08/28 08:19:00;;;;;;;;;6.00;5.25;;;;;20.52;53.22;101512.72;5096361;27;45344;-81
2022/08/28 08:21:26;;;;;;;;;10.25;6.50;;;;;20.56;52.51;101517.75;5096016;27;46776;-80
2022/08/28 08:23:52;;;;;;;;;6.50;5.50;;;;;20.60;53.02;101519.28;5096024;27;46016;-80
2022/08/28 08:26:20;;;;;;;;;10.25;5.50;;;;;20.64;53.13;101518.16;5096377;27;45310;-80
2022/08/28 08:28:46;;;;;;;;;7.75;6.00;;;;;20.69;52.41;101524.03;5077449;27;45535;-81
2022/08/28 08:31:17;;;;;;;;;6.50;4.75;;;;;20.74;52.68;101526.41;5077685;27;45487;-80
2022/08/28 08:33:48;;;;;;;;;5.50;5.00;;;;;20.80;52.65;101527.81;5077442;27;45430;-80
2022/08/28 08:36:16;;;;;;;;;8.50;8.00;;;;;20.83;52.11;101523.22;5095985;27;45362;-81
2022/08/28 08:38:42;;;;;;;;;6.25;6.00;;;;;20.87;52.27;101529.16;5096019;27;45266;-79
2022/08/28 08:41:32;;;;;;;;;6.25;6.00;;;;;20.94;52.55;101522.56;5095543;27;45694;-80
2022/08/28 08:44:08;;;;;;;;;6.00;4.75;;;;;21.02;52.03;101522.97;5095874;27;45472;-80
2022/08/28 08:46:42;;;;;;;;;6.00;6.00;;;;;21.10;52.06;101532.22;5077599;27;45333;-81
2022/08/28 08:49:19;;;;;;;;;5.50;5.25;;;;;21.16;52.01;101527.41;5077661;27;45315;-80
2022/08/28 08:52:25;;;;;;;;;8.00;6.00;;;;;21.22;51.68;101526.19;5077336;27;46420;-81
2022/08/28 08:55:01;;;;;;;;;6.00;5.75;;;;;21.29;51.74;101516.94;5077484;27;45946;-80
2022/08/28 08:57:27;;;;;;;;;6.50;6.25;;;;;21.36;51.41;101522.69;5077148;27;45611;-81
2022/08/28 08:59:52;;;;;;;;;7.50;6.00;;;;;21.41;51.29;101521.47;5095665;27;45398;-81
2022/08/28 09:02:21;;;;;;;;;5.75;5.75;;;;;21.49;51.59;101531.63;5096044;27;71022;-80
2022/08/28 09:05:04;;;;;;;;;7.00;7.00;;;;;21.56;51.04;101522.34;5080786;27;45373;-80
2022/08/28 09:07:49;;;;;;;;;8.25;6.00;;;;;21.63;51.04;101522.78;5080851;27;45266;-80
2022/08/28 09:10:15;;;;;;;;;7.00;6.00;;;;;21.73;50.94;101528.34;5084316;27;45594;-80
2022/08/28 09:13:17;;;;;;;;;8.00;5.25;;;;;21.80;51.14;101521.72;5098750;27;45473;-80
2022/08/28 09:15:45;;;;;;;;;10.50;6.25;;;;;21.85;50.48;101522.28;5055937;28;45751;-80
2022/08/28 09:18:17;;;;;;;;;7.00;6.00;;;;;21.92;50.40;101512.16;5056164;28;45294;-81
2022/08/28 09:20:42;;;;;;;;;10.00;7.00;;;;;21.96;49.92;101511.84;5055823;28;45474;-80
2022/08/28 09:23:07;;;;;;;;;10.50;8.50;;;;;22.02;49.94;101513.22;5055781;28;46219;-80
2022/08/28 09:26:01;;;;;;;;;7.75;6.75;;;;;22.08;49.92;101514.63;5054956;28;62106;-80
2022/08/28 09:28:36;;;;;;;;;11.25;9.00;;;;;22.12;49.83;101511.69;5056022;28;45386;-80
2022/08/28 09:31:15;;;;;;;;;9.25;7.75;;;;;22.16;49.71;101515.84;5055915;28;45407;-80
2022/08/28 09:33:50;;;;;;;;;10.00;7.75;;;;;22.22;49.59;101512.78;5036425;28;45586;-80
2022/08/28 09:36:30;;;;;;;;;9.00;7.75;;;;;22.31;49.49;101508.72;5035400;28;45505;-81
2022/08/28 09:39:08;;;;;;;;;24.25;20.50;;;;;22.38;49.30;101503.81;5035076;28;45471;-80
2022/08/28 09:44:25;;;;;;;;;8.25;7.00;;;;;22.53;48.98;101512.56;5035187;28;45895;-81
2022/08/28 09:46:51;;;;;;;;;11.75;9.00;;;;;22.60;48.55;101505.91;5035345;28;45620;-80
2022/08/28 09:49:28;;;;;;;;;9.75;8.00;;;;;22.67;48.27;101506.34;5035244;28;45452;-80
2022/08/28 09:51:55;;;;;;;;;10.25;8.25;;;;;22.75;48.37;101501.34;5044891;27;45311;-80
2022/08/28 09:54:25;;;;;;;;;11.00;10.00;;;;;22.81;48.06;101509.75;5097582;27;45550;-80
2022/08/28 09:56:50;;;;;;;;;10.00;10.00;;;;;22.86;48.11;101500.63;5079937;27;45414;-80
2022/08/28 09:59:21;;;;;;;;;12.50;10.00;;;;;22.95;48.01;101492.88;5098537;27;45490;-81
2022/08/28 10:02:19;;;;;;;;;11.25;8.00;;;;;23.04;47.75;101498.53;5079975;27;45358;-81
2022/08/28 10:04:57;;;;;;;;;9.25;9.25;;;;;23.07;47.44;101500.97;5098021;27;45622;-80
2022/08/28 10:07:36;;;;;;;;;10.00;10.00;;;;;23.12;47.28;101493.53;5098119;27;45845;-80
2022/08/28 10:10:17;;;;;;;;;11.50;8.25;;;;;23.21;47.21;101492.88;5097883;27;45423;-81
2022/08/28 10:13:17;;;;;;;;;12.25;9.00;;;;;23.30;47.00;101491.41;5098117;27;45510;-80
2022/08/28 10:15:45;;;;;;;;;9.00;8.75;;;;;23.38;46.78;101487.25;4978369;28;46365;-81
2022/08/28 10:18:19;;;;;;;;;8.00;8.00;;;;;23.45;46.50;101482.31;4995190;28;45718;-81
2022/08/28 10:21:23;;;;;;;;;10.25;9.00;;;;;23.57;46.20;101483.28;4995141;28;45460;-81
2022/08/28 10:24:22;;;;;;;;;13.00;8.00;;;;;23.68;47.41;101493.09;4991737;28;45628;-81
2022/08/28 10:27:11;;;;;;;;;20.75;17.50;;;;;23.77;46.21;101493.31;4994937;28;46168;-81
2022/08/28 10:29:52;;;;;;;;;14.00;11.50;;;;;23.90;46.27;101490.63;4978503;28;45789;-81
2022/08/28 10:32:23;;;;;;;;;15.50;11.75;;;;;24.04;45.69;101488.75;4978490;28;45494;-81
2022/08/28 10:35:10;;;;;;;;;9.00;8.25;;;;;24.16;45.38;101482.50;4994725;28;45451;-81
2022/08/28 10:37:51;;;;;;;;;13.00;12.00;;;;;24.25;45.06;101480.97;4978224;28;45660;-81
2022/08/28 10:40:33;;;;;;;;;12.50;8.75;;;;;24.31;44.65;101477.84;4978419;28;45484;-81
2022/08/28 10:43:06;;;;;;;;;9.00;8.25;;;;;24.42;44.89;101479.69;4994910;28;45480;-81
2022/08/28 10:45:33;;;;;;;;;16.50;14.50;;;;;24.54;44.65;101474.31;4978614;28;45330;-80
2022/08/28 10:48:04;;;;;;;;;23.75;17.75;;;;;24.69;44.38;101482.94;4994616;28;46309;-81
2022/08/28 10:50:50;;;;;;;;;16.00;13.50;;;;;24.86;44.03;101478.13;4978259;28;45397;-81
2022/08/28 10:53:27;;;;;;;;;9.50;7.75;;;;;25.01;43.44;101486.75;5078087;27;45364;-81
2022/08/28 10:55:58;;;;;;;;;12.00;10.00;;;;;25.11;43.35;101485.03;5078905;27;45400;-81
2022/08/28 10:58:26;;;;;;;;;9.75;9.75;;;;;25.19;42.77;101489.78;5078996;27;46737;-81
2022/08/28 11:00:55;;;;;;;;;11.00;8.75;;;;;25.28;42.71;101486.44;5097316;27;45346;-80
2022/08/28 11:03:22;;;;;;;;;12.00;9.75;;;;;25.42;42.14;101486.16;5079163;27;45442;-80
2022/08/28 11:05:54;;;;;;;;;9.25;7.25;;;;;25.50;42.08;101480.19;5079042;27;45512;-81
2022/08/28 11:08:26;;;;;;;;;10.00;7.25;;;;;25.63;42.24;101482.72;5097214;27;46263;-80
2022/08/28 11:10:54;;;;;;;;;8.50;8.50;;;;;25.86;42.26;101479.03;5079008;27;45350;-80
2022/08/28 11:13:41;;;;;;;;;7.75;7.75;;;;;26.11;40.99;101476.19;5097075;27;45386;-81
2022/08/28 11:16:17;;;;;;;;;8.50;8.00;;;;;26.14;40.97;101482.13;5097106;27;45381;-81
2022/08/28 11:19:22;;;;;;;;;6.25;6.25;;;;;26.21;40.87;101467.28;5097065;27;45608;-81
2022/08/28 11:21:48;;;;;;;;;8.75;8.25;;;;;26.21;39.89;101472.63;5096664;27;45403;-80
2022/08/28 11:24:25;;;;;;;;;6.75;6.75;;;;;26.15;39.98;101469.63;5097011;27;45308;-81
2022/08/28 11:27:15;;;;;;;;;7.75;7.75;;;;;26.26;40.14;101472.22;5095853;27;45445;-81
2022/08/28 11:30:05;;;;;;;;;6.75;6.75;;;;;26.61;40.09;101468.44;5078857;27;45412;-81
2022/08/28 11:32:30;;;;;;;;;7.75;5.50;;;;;26.83;38.65;101470.09;5096510;27;45395;-80
2022/08/28 11:35:06;;;;;;;;;10.67;7.33;;;;;27.01;38.68;101470.34;5096486;27;45458;-81
2022/08/28 11:37:42;;;;;;;;;5.75;5.00;;;;;27.05;38.25;101471.75;5078476;27;45527;-80
2022/08/28 11:40:24;;;;;;;;;5.25;5.25;;;;;28.12;37.55;101474.72;5096623;27;45388;-81